Time;durP1;ratioP1;P1;durP2;ratioP2;P2;SDS_P1;SDS_P2;PMS_P1;PMS_P2;Temp;Humidity;BMP_temperature;BMP_pressure;BME280_temperature;BME280_humidity;BME280_pressure;Samples;Min_cycle;Max_cycle;Signal;HPM_P1;HPM_P2
2023/03/03 00:02:22;;;;;;;3.53;1.00;;;2.60;99.90;;;;;;6185732;23;20016;-76
2023/03/03 00:04:48;;;;;;;3.75;1.05;;;3.00;99.90;;;;;;6237837;23;20059;-76
2023/03/03 00:07:20;;;;;;;2.30;1.00;;;2.60;99.90;;;;;;6185989;23;20024;-74
2023/03/03 00:09:46;;;;;;;3.33;0.77;;;2.70;99.90;;;;;;6186830;23;20054;-75
2023/03/03 00:12:27;;;;;;;3.28;1.00;;;2.60;99.90;;;;;;6211163;23;20209;-74
2023/03/03 00:14:53;;;;;;;2.85;0.80;;;2.60;99.90;;;;;;6185532;23;20059;-75
2023/03/03 00:17:27;;;;;;;5.97;1.08;;;2.60;99.90;;;;;;6186074;23;20336;-76
2023/03/03 00:19:53;;;;;;;2.92;1.00;;;4.00;99.90;;;;;;6237963;23;20095;-75
2023/03/03 00:22:29;;;;;;;1.75;0.90;;;2.60;99.90;;;;;;6186313;23;20324;-75
2023/03/03 00:24:59;;;;;;;4.68;1.67;;;3.00;99.90;;;;;;6186487;23;20111;-75
2023/03/03 00:27:33;;;;;;;1.70;1.00;;;2.60;99.90;;;;;;6237032;23;20058;-75
2023/03/03 00:29:59;;;;;;;2.75;0.98;;;2.60;99.90;;;;;;6185485;23;20095;-75
2023/03/03 00:32:49;;;;;;;4.68;1.02;;;3.10;99.90;;;;;;6185392;23;20012;-75
2023/03/03 00:35:29;;;;;;;2.17;0.85;;;2.60;99.90;;;;;;6210286;23;20024;-75
2023/03/03 00:38:00;;;;;;;3.47;1.00;;;2.60;99.90;;;;;;6210643;23;20471;-75
2023/03/03 00:40:37;;;;;;;1.58;0.77;;;3.50;99.90;;;;;;6236419;23;20077;-74
2023/03/03 00:43:17;;;;;;;4.53;0.98;;;2.60;99.90;;;;;;6210397;23;20016;-75
2023/03/03 00:45:54;;;;;;;3.30;0.75;;;2.60;99.90;;;;;;6209130;23;20016;-75
2023/03/03 00:48:29;;;;;;;4.47;0.90;;;2.60;99.90;;;;;;6237559;23;20047;-75
2023/03/03 00:50:59;;;;;;;1.88;0.85;;;2.60;99.90;;;;;;6210633;23;20027;-75
2023/03/03 00:53:29;;;;;;;4.63;0.98;;;2.80;99.90;;;;;;6209741;23;20111;-75
2023/03/03 00:55:56;;;;;;;3.75;0.82;;;2.70;99.90;;;;;;6237355;23;20028;-75
2023/03/03 00:58:23;;;;;;;2.35;0.73;;;2.70;99.90;;;;;;6210798;23;20347;-75
2023/03/03 01:00:51;;;;;;;3.67;0.90;;;2.60;99.90;;;;;;6210567;23;20027;-76
2023/03/03 01:03:20;;;;;;;1.90;0.90;;;2.60;99.90;;;;;;6185969;23;20444;-76
2023/03/03 01:05:47;;;;;;;2.10;0.90;;;2.60;99.90;;;;;;6208999;23;20043;-76
2023/03/03 01:08:13;;;;;;;5.93;0.90;;;2.70;99.90;;;;;;6212793;23;20042;-76
2023/03/03 01:10:49;;;;;;;3.20;0.70;;;2.90;99.90;;;;;;6183928;23;20028;-76
2023/03/03 01:13:15;;;;;;;;;;;2.80;99.90;;;;;;6208983;23;20048;-76
2023/03/03 01:15:41;;;;;;;2.88;0.85;;;2.70;99.90;;;;;;6182422;23;19923;-76
2023/03/03 01:18:08;;;;;;;1.88;1.10;;;2.60;99.90;;;;;;6158603;23;20017;-76
2023/03/03 01:20:34;;;;;;;2.85;0.80;;;2.60;99.90;;;;;;6208061;23;20021;-76
2023/03/03 01:23:00;;;;;;;3.05;0.80;;;2.60;99.90;;;;;;6158804;23;20336;-78
2023/03/03 01:25:26;;;;;;;3.35;1.30;;;2.60;99.90;;;;;;6207658;23;20426;-79
2023/03/03 01:27:52;;;;;;;3.88;0.80;;;2.60;99.90;;;;;;6183583;23;20725;-78
2023/03/03 01:30:17;;;;;;;2.50;1.27;;;2.50;99.90;;;;;;6183557;23;20035;-78
2023/03/03 01:32:43;;;;;;;2.13;0.80;;;2.50;99.90;;;;;;6208080;23;20021;-78
2023/03/03 01:35:09;;;;;;;2.92;0.90;;;2.70;99.90;;;;;;6182846;23;20017;-78
2023/03/03 01:37:35;;;;;;;2.25;0.90;;;2.40;99.90;;;;;;6182666;23;20025;-79
2023/03/03 01:40:01;;;;;;;2.53;0.80;;;2.40;99.90;;;;;;6182350;23;20024;-78
2023/03/03 01:42:28;;;;;;;2.75;0.80;;;3.50;99.90;;;;;;6207692;23;20063;-80
2023/03/03 01:45:14;;;;;;;0.90;0.60;;;2.40;99.90;;;;;;6182686;23;20020;-78
2023/03/03 01:47:47;;;;;;;2.20;0.85;;;2.30;99.90;;;;;;6207995;23;20471;-78
2023/03/03 01:50:30;;;;;;;2.05;0.70;;;2.30;99.90;;;;;;6207761;23;20389;-78
2023/03/03 01:52:58;;;;;;;4.57;0.95;;;2.50;99.90;;;;;;6208602;23;20062;-78
2023/03/03 01:55:38;;;;;;;2.15;0.93;;;2.20;99.90;;;;;;6207534;23;20024;-77
2023/03/03 01:58:13;;;;;;;2.08;1.00;;;2.20;99.90;;;;;;6208413;23;20017;-77
2023/03/03 02:00:42;;;;;;;1.00;0.60;;;1.80;99.90;;;;;;6207580;23;20029;-78
2023/03/03 02:03:09;;;;;;;3.55;0.90;;;2.60;99.90;;;;;;6208262;23;20035;-77
2023/03/03 02:05:36;;;;;;;3.50;1.00;;;2.10;99.90;;;;;;6206649;23;20768;-77
2023/03/03 02:08:02;;;;;;;6.38;0.93;;;3.20;99.90;;;;;;6133364;23;20020;-76
2023/03/03 02:10:29;;;;;;;4.38;0.90;;;2.00;99.90;;;;;;6182809;23;20028;-78
2023/03/03 02:12:57;;;;;;;1.80;1.00;;;2.00;99.90;;;;;;6182210;23;20076;-77
2023/03/03 02:15:34;;;;;;;1.60;0.80;;;2.30;99.90;;;;;;6207058;23;20103;-76
2023/03/03 02:18:08;;;;;;;1.75;0.80;;;1.90;99.90;;;;;;6207806;23;20158;-76
2023/03/03 02:20:44;;;;;;;3.10;0.90;;;2.20;99.90;;;;;;6207509;23;20016;-76
2023/03/03 02:23:38;;;;;;;2.78;0.90;;;2.00;99.90;;;;;;6208094;23;20151;-76
2023/03/03 02:26:09;;;;;;;1.42;0.80;;;1.90;99.90;;;;;;6182241;23;20024;-76
2023/03/03 02:28:36;;;;;;;2.08;0.90;;;1.90;99.90;;;;;;6207597;23;20479;-76
2023/03/03 02:31:04;;;;;;;2.28;0.80;;;3.20;99.90;;;;;;6207835;23;20024;-76
2023/03/03 02:33:30;;;;;;;1.63;0.80;;;1.80;99.90;;;;;;6207737;23;20530;-77
2023/03/03 02:35:56;;;;;;;3.58;0.90;;;1.80;99.90;;;;;;6182178;23;20021;-76
2023/03/03 02:38:41;;;;;;;2.13;0.80;;;1.80;99.90;;;;;;6182463;23;20028;-77
2023/03/03 02:41:13;;;;;;;2.30;0.98;;;1.80;99.90;;;;;;6207539;23;20075;-76
2023/03/03 02:43:58;;;;;;;1.10;0.70;;;1.70;99.90;;;;;;6207297;23;20028;-76
2023/03/03 02:46:25;;;;;;;3.25;0.75;;;1.70;99.90;;;;;;6207462;23;20048;-76
2023/03/03 02:48:50;;;;;;;2.47;1.17;;;1.70;99.90;;;;;;6182848;23;20055;-76
2023/03/03 02:51:16;;;;;;;1.60;0.82;;;1.90;99.90;;;;;;6182776;23;20032;-76
2023/03/03 02:53:42;;;;;;;4.57;1.08;;;1.60;99.90;;;;;;6207066;23;20017;-76
2023/03/03 02:56:08;;;;;;;7.60;1.10;;;1.60;99.90;;;;;;6182023;23;20028;-76
2023/03/03 02:58:35;;;;;;;2.55;0.80;;;1.60;99.90;;;;;;6207168;23;20016;-78
2023/03/03 03:01:01;;;;;;;1.42;0.90;;;1.90;99.90;;;;;;6207712;23;20028;-76
2023/03/03 03:03:27;;;;;;;5.10;0.90;;;1.60;99.90;;;;;;6207514;23;20032;-76
2023/03/03 03:05:52;;;;;;;3.58;1.00;;;1.60;99.90;;;;;;6206593;23;20115;-76
2023/03/03 03:08:18;;;;;;;2.80;0.93;;;1.60;99.90;;;;;;6182410;23;20029;-76
2023/03/03 03:10:44;;;;;;;4.10;1.10;;;2.20;99.90;;;;;;6181960;23;20024;-76
2023/03/03 03:13:10;;;;;;;3.47;1.10;;;1.80;99.90;;;;;;6207051;23;20017;-76
2023/03/03 03:15:37;;;;;;;3.00;1.30;;;1.60;99.90;;;;;;6181710;23;20025;-78
2023/03/03 03:18:03;;;;;;;3.60;1.02;;;1.60;99.90;;;;;;6182456;23;20233;-76
2023/03/03 03:20:29;;;;;;;2.40;1.00;;;1.80;99.90;;;;;;6182386;23;20016;-78
2023/03/03 03:22:54;;;;;;;5.43;1.08;;;2.00;99.90;;;;;;6207014;23;20566;-76
2023/03/03 03:25:20;;;;;;;3.05;0.90;;;1.60;99.90;;;;;;6181959;23;20139;-77
2023/03/03 03:27:46;;;;;;;3.13;0.90;;;1.60;99.90;;;;;;6206993;23;20027;-77
2023/03/03 03:30:12;;;;;;;3.90;0.93;;;1.90;99.90;;;;;;6157885;23;20040;-77
2023/03/03 03:32:38;;;;;;;1.95;0.88;;;1.60;99.90;;;;;;6157707;23;20054;-78
2023/03/03 03:35:04;;;;;;;1.65;0.70;;;1.60;99.90;;;;;;6181982;23;20016;-77
2023/03/03 03:37:30;;;;;;;4.30;1.23;;;1.60;99.90;;;;;;6157535;23;20028;-77
2023/03/03 03:39:55;;;;;;;3.50;0.95;;;2.00;99.90;;;;;;6131606;23;20016;-76
2023/03/03 03:42:21;;;;;;;1.73;0.80;;;1.70;99.90;;;;;;6206743;23;20017;-77
2023/03/03 03:44:47;;;;;;;4.47;1.20;;;1.80;99.90;;;;;;6181804;23;20151;-76
2023/03/03 03:47:13;;;;;;;2.60;1.02;;;1.80;99.90;;;;;;6182431;23;20017;-76
2023/03/03 03:49:39;;;;;;;3.60;1.00;;;2.10;99.90;;;;;;6181888;23;20017;-78
2023/03/03 03:52:04;;;;;;;2.15;0.90;;;1.80;99.90;;;;;;6181752;23;20448;-76
2023/03/03 03:54:30;;;;;;;4.82;1.02;;;1.80;99.90;;;;;;6181763;23;20031;-76
2023/03/03 03:56:56;;;;;;;5.47;1.00;;;2.40;99.90;;;;;;6206068;23;20071;-77
2023/03/03 03:59:21;;;;;;;3.58;1.00;;;1.80;99.90;;;;;;6206737;23;20024;-77
2023/03/03 04:01:48;;;;;;;2.83;1.25;;;2.10;99.90;;;;;;6181769;23;20016;-76
2023/03/03 04:04:15;;;;;;;3.95;1.00;;;2.20;99.90;;;;;;6182009;23;20090;-76
2023/03/03 04:06:40;;;;;;;8.95;2.08;;;1.90;99.90;;;;;;6181577;23;20066;-78
2023/03/03 04:09:06;;;;;;;2.83;0.90;;;2.40;99.90;;;;;;6181634;23;20059;-76
2023/03/03 04:11:32;;;;;;;3.20;0.90;;;2.20;99.90;;;;;;6181931;23;20020;-76
2023/03/03 04:13:57;;;;;;;3.92;1.10;;;1.90;99.90;;;;;;6206218;23;20032;-76
2023/03/03 04:16:23;;;;;;;3.47;1.00;;;2.00;99.90;;;;;;6181888;23;20101;-77
2023/03/03 04:18:49;;;;;;;4.85;1.00;;;1.90;99.90;;;;;;6132067;23;20731;-77
2023/03/03 04:21:15;;;;;;;4.55;1.00;;;2.30;99.90;;;;;;6181944;23;20026;-76
2023/03/03 04:23:41;;;;;;;1.92;0.77;;;1.90;99.90;;;;;;6205928;23;20074;-78
2023/03/03 04:26:07;;;;;;;3.75;1.00;;;1.80;99.90;;;;;;6206785;23;20436;-76
2023/03/03 04:28:33;;;;;;;4.03;0.80;;;2.00;99.90;;;;;;6156839;23;20020;-76
2023/03/03 04:30:59;;;;;;;4.97;0.90;;;2.10;99.90;;;;;;6181182;23;20021;-76
2023/03/03 04:33:25;;;;;;;3.15;0.88;;;1.80;99.90;;;;;;6181463;23;20107;-77
2023/03/03 04:35:51;;;;;;;1.40;0.73;;;1.80;99.90;;;;;;6180653;23;20081;-76
2023/03/03 04:38:17;;;;;;;2.42;0.90;;;1.80;99.90;;;;;;6180947;23;20017;-77
2023/03/03 04:40:45;;;;;;;2.22;0.85;;;1.90;99.90;;;;;;6205417;23;20021;-79
2023/03/03 04:43:11;;;;;;;3.22;0.90;;;1.80;99.90;;;;;;6206410;23;20095;-77
2023/03/03 04:45:37;;;;;;;2.97;0.90;;;2.70;99.90;;;;;;6156944;23;20408;-77
2023/03/03 04:48:03;;;;;;;4.82;1.10;;;1.80;99.90;;;;;;6181212;23;20358;-77
2023/03/03 04:50:28;;;;;;;2.30;0.75;;;1.80;99.90;;;;;;6181877;23;20029;-77
2023/03/03 04:52:57;;;;;;;5.32;0.90;;;2.00;99.90;;;;;;6181084;23;20023;-77
2023/03/03 04:55:22;;;;;;;3.42;0.90;;;1.80;99.90;;;;;;6157256;23;20020;-77
2023/03/03 04:57:48;;;;;;;3.38;1.00;;;1.70;99.90;;;;;;6205771;23;20024;-77
2023/03/03 05:00:14;;;;;;;2.17;0.88;;;2.00;99.90;;;;;;6206691;23;20063;-77
2023/03/03 05:02:40;;;;;;;3.55;0.80;;;1.70;99.90;;;;;;6206353;23;20027;-78
2023/03/03 05:05:08;;;;;;;2.25;1.00;;;1.90;99.90;;;;;;6131730;23;20024;-77
2023/03/03 05:07:34;;;;;;;1.23;0.90;;;1.70;99.90;;;;;;6181490;23;20024;-77
2023/03/03 05:10:00;;;;;;;2.67;1.25;;;2.40;99.90;;;;;;6180527;23;20027;-77
2023/03/03 05:12:26;;;;;;;1.77;0.80;;;1.70;99.90;;;;;;6156791;23;20021;-77
2023/03/03 05:14:51;;;;;;;3.33;1.10;;;1.70;99.90;;;;;;6180539;23;20016;-77
2023/03/03 05:17:17;;;;;;;4.07;1.50;;;1.70;99.90;;;;;;6181229;23;20078;-77
2023/03/03 05:19:43;;;;;;;4.95;1.60;;;2.80;99.90;;;;;;6180934;23;20020;-78
2023/03/03 05:22:09;;;;;;;3.03;1.50;;;1.70;99.90;;;;;;6180569;23;20096;-76
2023/03/03 05:24:35;;;;;;;3.17;1.38;;;1.70;99.90;;;;;;6181334;23;20082;-77
2023/03/03 05:27:02;;;;;;;4.32;1.30;;;1.90;99.90;;;;;;6155272;23;20016;-77
2023/03/03 05:29:30;;;;;;;2.42;1.30;;;1.80;99.90;;;;;;6181607;23;20207;-77
2023/03/03 05:31:56;;;;;;;3.63;1.00;;;1.80;99.90;;;;;;6156611;23;20017;-77
2023/03/03 05:34:22;;;;;;;3.22;1.20;;;1.80;99.90;;;;;;6156497;23;20024;-77
2023/03/03 05:36:48;;;;;;;5.35;1.10;;;1.80;99.90;;;;;;6156350;23;20028;-78
2023/03/03 05:39:14;;;;;;;2.80;1.00;;;2.30;99.90;;;;;;6181350;23;20024;-78
2023/03/03 05:41:40;;;;;;;2.00;0.90;;;1.80;99.90;;;;;;6156537;23;20020;-77
2023/03/03 05:44:06;;;;;;;5.70;0.98;;;2.00;99.90;;;;;;6131243;23;20024;-76
2023/03/03 05:46:31;;;;;;;3.35;0.85;;;2.40;99.90;;;;;;6156963;23;20340;-77
2023/03/03 05:48:57;;;;;;;2.50;1.00;;;2.30;99.90;;;;;;6156294;23;20634;-77
2023/03/03 05:51:23;;;;;;;5.88;1.40;;;1.80;99.90;;;;;;6181143;23;20023;-77
2023/03/03 05:53:48;;;;;;;2.38;1.00;;;1.80;99.90;;;;;;6157327;23;20099;-78
2023/03/03 05:56:14;;;;;;;3.72;1.17;;;1.80;99.90;;;;;;6158345;23;20028;-77
2023/03/03 05:58:40;;;;;;;3.28;1.00;;;1.80;99.90;;;;;;6157932;23;20347;-77
2023/03/03 06:01:07;;;;;;;3.75;1.10;;;3.20;99.90;;;;;;6133769;23;20071;-77
2023/03/03 06:03:33;;;;;;;2.22;0.90;;;1.80;99.90;;;;;;6133858;23;20029;-77
2023/03/03 06:05:58;;;;;;;5.00;1.20;;;1.80;99.90;;;;;;6157980;23;20043;-77
2023/03/03 06:08:24;;;;;;;4.70;1.20;;;2.90;99.90;;;;;;6158645;23;20073;-77
2023/03/03 06:10:50;;;;;;;3.90;1.10;;;1.70;99.90;;;;;;6142203;23;20021;-78
2023/03/03 06:13:16;;;;;;;4.35;1.10;;;2.00;99.90;;;;;;6158207;23;20616;-76
2023/03/03 06:15:41;;;;;;;2.67;1.10;;;1.70;99.90;;;;;;6182409;23;20108;-77
2023/03/03 06:18:07;;;;;;;6.43;1.20;;;2.10;99.90;;;;;;6207747;23;20017;-79
2023/03/03 06:20:34;;;;;;;3.65;1.10;;;1.70;99.90;;;;;;6208139;23;20135;-79
2023/03/03 06:23:00;;;;;;;4.05;1.30;;;1.80;99.90;;;;;;6158016;23;20017;-80
2023/03/03 06:25:26;;;;;;;2.08;0.90;;;2.10;99.90;;;;;;6207540;23;20021;-76
2023/03/03 06:27:53;;;;;;;1.65;0.75;;;1.70;99.90;;;;;;6207541;23;20385;-82
2023/03/03 06:30:18;;;;;;;3.60;1.20;;;1.70;99.90;;;;;;6208518;23;20024;-81
2023/03/03 06:32:45;;;;;;;3.25;1.13;;;1.50;99.90;;;;;;6183182;23;20108;-80
2023/03/03 06:35:11;;;;;;;2.70;1.10;;;1.80;99.90;;;;;;6207391;23;20021;-81
2023/03/03 06:37:37;;;;;;;5.68;1.27;;;2.30;99.90;;;;;;6208095;23;20021;-77
2023/03/03 06:40:04;;;;;;;1.80;1.10;;;1.50;99.90;;;;;;6206368;23;20052;-80
2023/03/03 06:42:30;;;;;;;2.72;1.17;;;1.40;99.90;;;;;;6207588;23;20040;-81
2023/03/03 06:44:56;;;;;;;3.03;1.05;;;1.40;99.90;;;;;;6157902;23;20043;-81
2023/03/03 06:47:22;;;;;;;6.65;1.58;;;2.10;99.90;;;;;;6183467;23;20027;-81
2023/03/03 06:49:47;;;;;;;3.25;1.27;;;2.40;99.90;;;;;;6207680;23;20729;-80
2023/03/03 06:52:23;;;;;;;4.60;1.98;;;1.50;99.90;;;;;;6182103;23;20027;-80
2023/03/03 06:54:52;;;;;;;6.70;1.63;;;2.40;99.90;;;;;;6207110;23;20021;-81
2023/03/03 06:57:25;;;;;;;3.38;1.58;;;1.90;99.90;;;;;;6207796;23;20024;-81
2023/03/03 06:59:54;;;;;;;8.27;1.92;;;1.60;99.90;;;;;;6182534;23;20020;-80
2023/03/03 07:02:21;;;;;;;4.75;1.20;;;2.10;99.90;;;;;;6207346;23;20020;-81
2023/03/03 07:04:46;;;;;;;3.85;1.48;;;1.80;99.90;;;;;;6206753;23;20031;-80
2023/03/03 07:07:21;;;;;;;3.15;1.20;;;1.70;99.90;;;;;;6181929;23;20024;-81
2023/03/03 07:09:49;;;;;;;3.22;1.38;;;1.80;99.90;;;;;;6207475;23;20467;-78
2023/03/03 07:12:21;;;;;;;6.43;1.67;;;1.90;99.90;;;;;;6181840;23;20040;-77
2023/03/03 07:15:00;;;;;;;4.95;1.65;;;2.00;99.90;;;;;;6157699;23;20027;-77
2023/03/03 07:17:26;;;;;;;2.70;1.10;;;2.10;99.90;;;;;;6178765;23;20012;-78
2023/03/03 07:19:52;;;;;;;2.75;1.02;;;2.70;99.90;;;;;;6153533;23;20030;-79
2023/03/03 07:22:27;;;;;;;3.70;1.30;;;2.40;99.90;;;;;;6177808;23;20071;-78
2023/03/03 07:24:56;;;;;;;4.57;1.42;;;2.50;99.90;;;;;;6178195;23;20040;-78
2023/03/03 07:27:27;;;;;;;2.17;1.17;;;2.60;99.90;;;;;;6154629;23;20031;-77
2023/03/03 07:30:00;;;;;;;2.88;1.15;;;3.10;99.90;;;;;;6181140;23;20389;-78
2023/03/03 07:32:40;;;;;;;3.67;1.10;;;2.90;99.90;;;;;;6153689;23;20067;-78
2023/03/03 07:35:37;;;;;;;2.22;1.05;;;3.00;99.90;;;;;;6177736;23;20430;-83
2023/03/03 07:38:21;;;;;;;3.95;1.00;;;3.20;99.90;;;;;;6175607;23;20673;-80
2023/03/03 07:40:52;;;;;;;3.00;1.10;;;3.40;99.90;;;;;;6153182;23;20028;-79
2023/03/03 07:43:21;;;;;;;4.13;1.20;;;3.50;99.90;;;;;;6177016;23;20028;-78
2023/03/03 07:45:47;;;;;;;3.05;1.13;;;3.70;99.90;;;;;;6181237;23;20016;-85
2023/03/03 07:48:23;;;;;;;5.20;1.00;;;3.80;99.90;;;;;;6156638;23;20027;-85
2023/03/03 07:50:49;;;;;;;3.25;1.00;;;5.20;99.90;;;;;;6178437;23;20448;-79
2023/03/03 07:53:33;;;;;;;3.47;1.15;;;4.10;99.90;;;;;;6151800;23;20056;-79
2023/03/03 07:55:59;;;;;;;2.05;1.00;;;4.20;99.90;;;;;;6177845;23;20079;-80
2023/03/03 07:58:40;;;;;;;5.10;1.20;;;4.30;99.90;;;;;;6179939;23;20095;-79
2023/03/03 08:01:30;;;;;;;5.55;1.05;;;4.40;99.90;;;;;;6154291;23;20055;-79
2023/03/03 08:03:57;;;;;;;3.17;0.77;;;4.40;99.90;;;;;;6179484;23;20464;-79
2023/03/03 08:06:28;;;;;;;5.97;1.23;;;4.50;99.90;;;;;;6156734;23;20024;-79
2023/03/03 08:09:01;;;;;;;3.30;1.02;;;4.60;99.90;;;;;;6157121;23;20013;-79
2023/03/03 08:11:27;;;;;;;4.15;1.17;;;4.60;99.90;;;;;;6198087;23;20025;-79
2023/03/03 08:13:52;;;;;;;2.47;0.98;;;4.70;99.90;;;;;;6156073;23;20055;-80
2023/03/03 08:16:37;;;;;;;2.92;1.20;;;4.70;99.90;;;;;;6156275;23;20090;-80
2023/03/03 08:19:05;;;;;;;3.03;1.20;;;4.80;99.90;;;;;;6206597;23;20017;-80
2023/03/03 08:21:33;;;;;;;1.80;0.90;;;4.90;99.90;;;;;;6207191;23;20016;-80
2023/03/03 08:23:58;;;;;;;2.38;0.80;;;4.90;99.90;;;;;;6206780;23;20024;-79
2023/03/03 08:26:25;;;;;;;2.08;1.23;;;4.90;99.90;;;;;;6205696;23;20326;-79
2023/03/03 08:28:52;;;;;;;3.08;1.00;;;5.00;99.90;;;;;;6205989;23;20383;-80
2023/03/03 08:31:18;;;;;;;2.03;0.98;;;5.00;99.90;;;;;;6204778;23;20060;-85
2023/03/03 08:33:44;;;;;;;5.20;1.00;;;5.10;99.90;;;;;;6204431;23;20017;-85
2023/03/03 08:36:11;;;;;;;1.67;0.90;;;5.10;99.90;;;;;;6179542;23;20020;-84
2023/03/03 08:38:37;;;;;;;2.30;0.90;;;5.20;99.90;;;;;;6204695;23;20016;-82
2023/03/03 08:41:03;;;;;;;5.07;0.90;;;5.20;99.90;;;;;;6179736;23;20466;-84
2023/03/03 08:43:29;;;;;;;3.38;0.93;;;5.20;99.90;;;;;;6206146;23;20031;-83
2023/03/03 08:45:59;;;;;;;2.40;0.82;;;5.30;99.90;;;;;;6181662;23;20099;-84
2023/03/03 08:48:26;;;;;;;2.58;0.90;;;5.30;99.90;;;;;;6206070;23;20016;-84
2023/03/03 08:50:54;;;;;;;3.50;1.05;;;5.30;99.90;;;;;;6206446;23;20058;-87
2023/03/03 08:53:21;;;;;;;4.55;1.10;;;5.30;99.90;;;;;;6154663;23;20020;-85
2023/03/03 08:55:47;;;;;;;4.97;1.20;;;5.40;99.90;;;;;;6204788;23;20025;-82
2023/03/03 08:58:15;;;;;;;2.92;1.00;;;5.50;99.90;;;;;;6129309;23;20021;-84
2023/03/03 09:00:40;;;;;;;1.92;1.38;;;5.50;99.90;;;;;;6204334;23;20079;-82
2023/03/03 09:03:07;;;;;;;2.63;0.80;;;5.50;99.90;;;;;;6203742;23;20021;-80
2023/03/03 09:05:34;;;;;;;5.25;0.90;;;5.60;99.90;;;;;;6154044;23;20025;-81
2023/03/03 09:08:01;;;;;;;2.13;1.00;;;5.60;99.90;;;;;;6203184;23;20017;-81
2023/03/03 09:10:29;;;;;;;3.80;0.93;;;5.60;99.90;;;;;;6178812;23;20048;-86
2023/03/03 09:12:57;;;;;;;2.80;1.00;;;5.70;99.90;;;;;;6179647;23;20316;-81
2023/03/03 09:15:27;;;;;;;4.35;1.08;;;5.80;99.90;;;;;;6202997;23;20017;-82
2023/03/03 09:17:57;;;;;;;3.10;0.80;;;5.90;99.90;;;;;;6202904;23;20467;-85
2023/03/03 09:20:40;;;;;;;3.22;0.85;;;5.80;99.90;;;;;;6156472;23;20020;-83
2023/03/03 09:23:30;;;;;;;2.85;1.10;;;5.90;99.90;;;;;;6204845;23;20017;-85
2023/03/03 09:25:58;;;;;;;4.38;1.02;;;6.00;99.90;;;;;;6206102;23;20028;-83
2023/03/03 09:28:26;;;;;;;5.57;1.10;;;6.10;99.90;;;;;;6205414;23;20031;-81
2023/03/03 09:30:57;;;;;;;2.03;0.90;;;7.00;99.90;;;;;;6205965;23;20340;-84
2023/03/03 09:33:48;;;;;;;3.88;0.82;;;6.30;99.90;;;;;;6206289;23;20024;-85
2023/03/03 09:36:36;;;;;;;3.35;1.08;;;6.50;99.90;;;;;;6205808;23;20100;-85
2023/03/03 09:39:18;;;;;;;2.78;1.00;;;6.50;99.90;;;;;;6206024;23;20016;-84
2023/03/03 09:41:46;;;;;;;2.58;1.00;;;6.60;99.90;;;;;;6205414;23;20031;-85
2023/03/03 09:44:50;;;;;;;4.47;1.20;;;6.60;99.90;;;;;;6178793;23;20024;-83
2023/03/03 09:47:27;;;;;;;8.82;3.47;;;6.70;99.90;;;;;;6205788;23;20387;-85
2023/03/03 09:50:06;;;;;;;6.97;2.97;;;6.70;99.90;;;;;;6207536;23;20020;-85
2023/03/03 09:52:46;;;;;;;8.68;4.20;;;6.80;99.90;;;;;;6207259;23;20020;-82
2023/03/03 09:55:39;;;;;;;8.60;3.00;;;6.80;99.90;;;;;;6204498;23;20020;-87
2023/03/03 09:58:35;;;;;;;10.98;3.47;;;6.90;99.90;;;;;;6182688;23;20050;-83
2023/03/03 10:01:14;;;;;;;9.13;2.60;;;7.00;99.90;;;;;;6164047;23;20020;-85
2023/03/03 10:03:53;;;;;;;5.90;1.38;;;7.00;99.90;;;;;;6208718;23;20021;-86
2023/03/03 10:06:32;;;;;;;5.80;2.60;;;7.10;99.90;;;;;;6183389;23;20021;-86
2023/03/03 10:09:17;;;;;;;6.68;2.92;;;7.20;99.90;;;;;;6208817;23;20111;-87
2023/03/03 10:12:07;;;;;;;4.53;1.83;;;7.20;99.90;;;;;;6208974;23;20095;-88
2023/03/03 10:14:58;;;;;;;4.82;1.92;;;7.20;99.90;;;;;;6206768;23;20099;-83
2023/03/03 10:17:28;;;;;;;2.63;1.40;;;7.30;99.90;;;;;;6181834;23;20021;-84
2023/03/03 10:20:09;;;;;;;4.72;1.38;;;7.30;99.90;;;;;;6204376;23;20179;-85
2023/03/03 10:22:43;;;;;;;4.40;1.25;;;7.90;99.90;;;;;;6181071;23;20021;-91
2023/03/03 10:25:33;;;;;;;2.53;0.98;;;7.50;99.90;;;;;;6205907;23;20110;-85
2023/03/03 10:27:59;;;;;;;2.15;1.15;;;7.60;99.90;;;;;;6177508;23;20123;-84
2023/03/03 10:30:42;;;;;;;5.95;1.20;;;7.70;99.90;;;;;;6181065;23;20068;-86
2023/03/03 10:33:19;;;;;;;2.42;0.80;;;7.80;99.90;;;;;;6207021;23;20020;-85
2023/03/03 10:35:57;;;;;;;2.47;1.00;;;8.00;99.90;;;;;;6183114;23;20376;-84
2023/03/03 10:38:43;;;;;;;4.95;1.38;;;8.10;99.90;;;;;;6206410;23;20012;-86
2023/03/03 10:41:09;;;;;;;;;;;8.30;99.90;;;;;;6207832;23;20471;-84
2023/03/03 10:44:04;;;;;;;3.17;0.70;;;8.40;99.90;;;;;;6182455;23;19919;-86
2023/03/03 10:46:51;;;;;;;2.10;0.90;;;8.40;99.90;;;;;;6204913;23;20352;-86
2023/03/03 10:49:42;;;;;;;2.60;0.93;;;8.60;99.90;;;;;;6180406;23;20047;-86
2023/03/03 10:52:14;;;;;;;2.63;0.90;;;8.70;99.90;;;;;;6207077;23;20071;-84
2023/03/03 10:55:15;;;;;;;3.40;1.25;;;8.80;99.90;;;;;;6205917;23;20035;-85
2023/03/03 10:58:02;;;;;;;3.65;0.93;;;9.00;99.90;;;;;;6207156;23;20017;-88
2023/03/03 11:00:43;;;;;;;3.10;0.73;;;9.00;99.90;;;;;;6203048;23;20028;-83
2023/03/03 11:03:42;;;;;;;2.53;1.00;;;9.00;99.90;;;;;;6179257;23;20110;-83
2023/03/03 11:06:25;;;;;;;6.80;1.00;;;8.70;99.90;;;;;;6204915;23;20020;-85
2023/03/03 11:09:01;;;;;;;1.67;0.80;;;9.10;99.90;;;;;;6205274;23;20027;-84
2023/03/03 11:11:39;;;;;;;;;;;9.10;99.90;;;;;;6206111;23;20028;-84
2023/03/03 11:14:23;;;;;;;1.60;0.80;;;9.10;99.90;;;;;;6182332;23;20666;-85
2023/03/03 11:16:57;;;;;;;3.38;0.90;;;9.30;99.90;;;;;;6184088;23;20016;-87
2023/03/03 11:19:38;;;;;;;2.92;0.90;;;9.50;99.90;;;;;;6207367;23;20016;-86
2023/03/03 11:22:51;;;;;;;4.57;1.98;;;9.50;99.90;;;;;;6183063;23;20289;-84
2023/03/03 11:25:17;;;;;;;4.15;0.98;;;9.50;99.90;;;;;;6079009;23;20057;-88
2023/03/03 11:28:01;;;;;;;3.22;0.90;;;9.50;99.90;;;;;;6181898;23;20120;-85
2023/03/03 11:30:45;;;;;;;3.00;0.95;;;9.60;99.90;;;;;;6203312;23;20604;-83
2023/03/03 11:33:18;;;;;;;5.25;1.08;;;9.60;99.90;;;;;;6179454;23;20024;-84
2023/03/03 11:36:00;;;;;;;6.68;1.00;;;9.60;99.90;;;;;;6204987;23;20104;-84
2023/03/03 11:38:40;;;;;;;5.63;1.10;;;9.60;99.90;;;;;;6179373;23;20051;-84
2023/03/03 11:41:15;;;;;;;2.90;0.90;;;9.70;99.90;;;;;;6179535;23;20026;-84
2023/03/03 11:44:16;;;;;;;3.78;1.00;;;9.80;99.90;;;;;;6202804;23;20055;-86
2023/03/03 11:46:50;;;;;;;4.53;1.05;;;9.80;99.90;;;;;;6204265;23;20017;-85
2023/03/03 11:49:34;;;;;;;3.72;0.80;;;9.80;99.90;;;;;;6204099;23;20016;-84
2023/03/03 11:52:18;;;;;;;5.55;1.02;;;9.80;99.90;;;;;;6203057;23;20020;-83
2023/03/03 11:54:58;;;;;;;4.45;1.73;;;9.80;99.90;;;;;;6202484;23;20109;-85
2023/03/03 11:57:47;;;;;;;4.68;1.20;;;9.70;99.90;;;;;;6202847;23;20360;-84
2023/03/03 12:00:28;;;;;;;5.47;1.38;;;9.60;99.90;;;;;;6202213;23;20024;-84
2023/03/03 12:03:18;;;;;;;7.68;1.70;;;9.60;99.90;;;;;;6201650;23;20545;-86
2023/03/03 12:06:24;;;;;;;11.75;1.67;;;9.50;99.90;;;;;;6177777;23;20052;-86
2023/03/03 12:09:09;;;;;;;11.43;1.60;;;9.40;99.90;;;;;;6204765;23;20052;-85
2023/03/03 12:12:01;;;;;;;5.20;1.33;;;9.40;99.90;;;;;;6203189;23;20025;-87
2023/03/03 12:14:48;;;;;;;7.38;1.88;;;9.60;99.90;;;;;;6178090;23;20031;-83
2023/03/03 12:17:28;;;;;;;7.68;1.80;;;11.40;99.90;;;;;;6179430;23;20621;-85
2023/03/03 12:20:22;;;;;;;6.70;1.58;;;12.20;99.90;;;;;;6203932;23;20017;-85
2023/03/03 12:23:07;;;;;;;10.90;1.65;;;12.60;99.90;;;;;;6203679;23;20178;-84
2023/03/03 12:25:41;;;;;;;7.38;1.58;;;12.60;99.90;;;;;;6177971;23;20103;-84
2023/03/03 12:28:22;;;;;;;5.88;1.80;;;12.20;99.90;;;;;;6203950;23;20087;-84
2023/03/03 12:31:06;;;;;;;8.95;1.63;;;11.90;99.90;;;;;;6209934;23;20016;-85
2023/03/03 12:34:09;;;;;;;6.35;1.60;;;11.70;99.90;;;;;;6179394;23;20131;-86
2023/03/03 12:36:47;;;;;;;7.43;1.77;;;11.50;99.90;;;;;;6204314;23;20027;-86
2023/03/03 12:39:18;;;;;;;7.93;1.85;;;11.30;99.90;;;;;;6203917;23;20436;-88
2023/03/03 12:41:55;;;;;;;11.50;3.63;;;11.10;99.90;;;;;;6204017;23;20016;-85
2023/03/03 12:44:23;;;;;;;16.80;2.70;;;10.80;99.90;;;;;;6204644;23;20017;-85
2023/03/03 12:47:33;;;;;;;11.25;2.53;;;10.50;99.90;;;;;;6205003;23;20051;-86
2023/03/03 12:50:08;;;;;;;10.07;2.00;;;10.30;99.90;;;;;;6089845;23;20546;-86
2023/03/03 12:52:55;;;;;;;7.40;2.00;;;10.00;99.90;;;;;;6172338;23;20027;-86
2023/03/03 12:55:47;;;;;;;12.23;2.70;;;10.00;99.90;;;;;;6205028;23;20108;-86
2023/03/03 12:58:25;;;;;;;11.52;2.42;;;10.00;99.90;;;;;;6181946;23;20055;-87
2023/03/03 13:01:09;;;;;;;14.98;2.70;;;9.80;99.90;;;;;;6181980;23;20115;-86
2023/03/03 13:03:39;;;;;;;15.38;2.30;;;9.70;99.90;;;;;;6180414;23;20448;-85
2023/03/03 13:06:30;;;;;;;14.90;2.80;;;9.60;99.90;;;;;;6208178;23;20078;-85
2023/03/03 13:09:31;;;;;;;11.68;2.80;;;9.60;99.90;;;;;;6208246;23;20026;-88
2023/03/03 13:12:45;;;;;;;11.13;2.38;;;10.00;99.90;;;;;;6206971;23;20017;-89
2023/03/03 13:15:27;;;;;;;10.23;2.17;;;10.30;99.90;;;;;;6206206;23;20094;-86
2023/03/03 13:18:07;;;;;;;11.40;2.40;;;10.20;99.90;;;;;;6206765;23;20017;-88
2023/03/03 13:20:45;;;;;;;11.15;2.28;;;9.60;99.90;;;;;;6180111;23;20087;-80
2023/03/03 13:24:02;;;;;;;11.38;2.58;;;10.10;99.90;;;;;;6204708;23;20326;-80
2023/03/03 13:26:48;;;;;;;11.38;2.67;;;10.00;99.90;;;;;;6087093;23;20178;-86